BAW370 LIMJ-LFSB
Flight info
| Callsign | BAW370 |
|---|---|
| Flight time | 1h 10m |
| Altitude | 28000 |
| Route | LAGEN Q712 VOG M858 SRN L615 DESIP DCT ABESI N851 UTAVO DCT ELMUR T718 RIGVI |
| Aircraft | B788/H-SADE1E2E3FGHIJ3J4J5J6LM1M2OP2RWXYZ/LB1D1 |
Departure
| Time | 2026-05-07 09:49 |
|---|---|
| Airport | Genoa Cristoforo Colombo Airport (LIMJ) |
Arrival
| Time | 2026-05-07 10:59 |
|---|---|
| Airport | EuroAirport Basel–Mulhouse–Freiburg (LFSB) |
| Time | Latitude | Longitude | Altitude | Speed | Heading |
|---|---|---|---|---|---|
| 2026-05-07 09:33 | 44.41494 | 8.84904 | 26 ft | 0 kts | 106° |
| 2026-05-07 09:42 | 44.41499 | 8.84881 | 28 ft | 2 kts | 106° |
| 2026-05-07 09:42 | 44.41503 | 8.84859 | 32 ft | 2 kts | 106° |
| 2026-05-07 09:43 | 44.41508 | 8.84837 | 32 ft | 2 kts | 106° |
| 2026-05-07 09:43 | 44.41511 | 8.84822 | 32 ft | 0 kts | 106° |
| 2026-05-07 09:43 | 44.41509 | 8.84832 | 32 ft | 2 kts | 109° |
| 2026-05-07 09:43 | 44.41503 | 8.84847 | 32 ft | 2 kts | 124° |
| 2026-05-07 09:44 | 44.41492 | 8.84863 | 30 ft | 3 kts | 142° |
| 2026-05-07 09:44 | 44.41481 | 8.84872 | 29 ft | 1 kts | 163° |
| 2026-05-07 09:44 | 44.41472 | 8.84876 | 28 ft | 3 kts | 164° |
| 2026-05-07 09:44 | 44.41425 | 8.84870 | 30 ft | 10 kts | 207° |
| 2026-05-07 09:45 | 44.41396 | 8.84760 | 27 ft | 15 kts | 283° |
| 2026-05-07 09:45 | 44.41416 | 8.84614 | 26 ft | 15 kts | 263° |
| 2026-05-07 09:45 | 44.41361 | 8.84492 | 30 ft | 15 kts | 231° |
| 2026-05-07 09:45 | 44.41321 | 8.84357 | 29 ft | 17 kts | 274° |
| 2026-05-07 09:46 | 44.41358 | 8.84154 | 30 ft | 24 kts | 285° |
| 2026-05-07 09:46 | 44.41387 | 8.84004 | 30 ft | 24 kts | 285° |
| 2026-05-07 09:46 | 44.41432 | 8.83773 | 29 ft | 25 kts | 285° |
| 2026-05-07 09:46 | 44.41478 | 8.83534 | 27 ft | 26 kts | 285° |
| 2026-05-07 09:47 | 44.41528 | 8.83289 | 27 ft | 26 kts | 285° |
| 2026-05-07 09:47 | 44.41576 | 8.83037 | 28 ft | 27 kts | 285° |
| 2026-05-07 09:47 | 44.41629 | 8.82780 | 24 ft | 28 kts | 285° |
| 2026-05-07 09:47 | 44.41644 | 8.82522 | 26 ft | 25 kts | 231° |
| 2026-05-07 09:48 | 44.41520 | 8.82530 | 22 ft | 18 kts | 115° |
| 2026-05-07 09:48 | 44.41470 | 8.82771 | 29 ft | 43 kts | 105° |
| 2026-05-07 09:48 | 44.41339 | 8.83453 | 26 ft | 103 kts | 105° |
| 2026-05-07 09:48 | 44.41097 | 8.84677 | 67 ft | 155 kts | 108° |
| 2026-05-07 09:49 | 44.40795 | 8.86238 | 802 ft | 167 kts | 108° |
| 2026-05-07 09:49 | 44.40472 | 8.87703 | 1829 ft | 167 kts | 121° |
| 2026-05-07 09:49 | 44.39413 | 8.88566 | 2263 ft | 192 kts | 168° |
| 2026-05-07 09:49 | 44.38110 | 8.88890 | 3275 ft | 190 kts | 164° |
| 2026-05-07 09:50 | 44.36850 | 8.89476 | 4183 ft | 193 kts | 159° |
| 2026-05-07 09:50 | 44.35575 | 8.90137 | 5047 ft | 197 kts | 159° |
| 2026-05-07 09:50 | 44.34267 | 8.90793 | 5909 ft | 202 kts | 160° |
| 2026-05-07 09:50 | 44.32928 | 8.91452 | 6736 ft | 206 kts | 161° |
| 2026-05-07 09:51 | 44.31564 | 8.92125 | 7550 ft | 209 kts | 162° |
| 2026-05-07 09:51 | 44.30182 | 8.92806 | 8418 ft | 212 kts | 163° |
| 2026-05-07 09:51 | 44.28777 | 8.93457 | 9244 ft | 214 kts | 169° |
| 2026-05-07 09:51 | 44.27327 | 8.93248 | 10036 ft | 210 kts | 204° |
| 2026-05-07 09:52 | 44.26083 | 8.92210 | 10818 ft | 209 kts | 216° |
| 2026-05-07 09:52 | 44.24872 | 8.91061 | 11588 ft | 212 kts | 217° |
| 2026-05-07 09:52 | 44.23664 | 8.89919 | 12343 ft | 214 kts | 217° |
| 2026-05-07 09:52 | 44.22424 | 8.88754 | 13125 ft | 216 kts | 217° |
| 2026-05-07 09:53 | 44.21171 | 8.87579 | 13876 ft | 219 kts | 217° |
| 2026-05-07 09:53 | 44.19905 | 8.86390 | 14562 ft | 221 kts | 218° |
| 2026-05-07 09:53 | 44.18748 | 8.85304 | 15189 ft | 223 kts | 218° |
| 2026-05-07 09:53 | 44.17450 | 8.84087 | 15873 ft | 225 kts | 218° |
| 2026-05-07 09:54 | 44.16145 | 8.82864 | 16554 ft | 228 kts | 218° |
| 2026-05-07 09:54 | 44.14834 | 8.81600 | 17228 ft | 229 kts | 223° |
| 2026-05-07 09:54 | 44.13904 | 8.79851 | 17884 ft | 225 kts | 248° |
| 2026-05-07 09:54 | 44.13552 | 8.77648 | 18030 ft | 248 kts | 271° |
| 2026-05-07 09:55 | 44.13646 | 8.75111 | 18074 ft | 276 kts | 272° |
| 2026-05-07 09:55 | 44.13743 | 8.72427 | 18737 ft | 277 kts | 272° |
| 2026-05-07 09:55 | 44.13925 | 8.69763 | 19399 ft | 278 kts | 284° |
| 2026-05-07 09:55 | 44.14706 | 8.67286 | 20039 ft | 283 kts | 301° |
| 2026-05-07 09:56 | 44.16077 | 8.65245 | 20236 ft | 308 kts | 321° |
| 2026-05-07 09:56 | 44.18045 | 8.63756 | 20277 ft | 334 kts | 330° |
| 2026-05-07 09:56 | 44.20226 | 8.62351 | 20298 ft | 356 kts | 332° |
| 2026-05-07 09:56 | 44.22542 | 8.60884 | 20344 ft | 375 kts | 331° |
| 2026-05-07 09:57 | 44.24953 | 8.59307 | 20528 ft | 387 kts | 330° |
| 2026-05-07 09:57 | 44.27390 | 8.57696 | 21158 ft | 388 kts | 331° |
| 2026-05-07 09:57 | 44.29846 | 8.56086 | 21652 ft | 391 kts | 331° |
| 2026-05-07 09:57 | 44.32327 | 8.54466 | 22169 ft | 394 kts | 331° |
| 2026-05-07 09:58 | 44.34866 | 8.52988 | 22662 ft | 400 kts | 339° |
| 2026-05-07 09:58 | 44.37618 | 8.52252 | 23313 ft | 405 kts | 352° |
| 2026-05-07 09:58 | 44.40443 | 8.52340 | 23888 ft | 410 kts | 4° |
| 2026-05-07 09:58 | 44.43225 | 8.53298 | 24387 ft | 416 kts | 17° |
| 2026-05-07 09:59 | 44.45846 | 8.55098 | 24838 ft | 422 kts | 26° |
| 2026-05-07 09:59 | 44.48386 | 8.57168 | 25270 ft | 423 kts | 26° |
| 2026-05-07 09:59 | 44.50928 | 8.59275 | 25693 ft | 425 kts | 26° |
| 2026-05-07 09:59 | 44.53471 | 8.61390 | 26186 ft | 425 kts | 26° |
| 2026-05-07 10:00 | 44.56020 | 8.63494 | 26656 ft | 425 kts | 25° |
| 2026-05-07 10:00 | 44.58541 | 8.65571 | 27081 ft | 427 kts | 26° |
| 2026-05-07 10:00 | 44.61101 | 8.67691 | 27569 ft | 427 kts | 25° |
| 2026-05-07 10:00 | 44.63667 | 8.69804 | 28012 ft | 429 kts | 25° |
| 2026-05-07 10:01 | 44.66276 | 8.71938 | 28012 ft | 435 kts | 25° |
| 2026-05-07 10:01 | 44.71429 | 8.76198 | 28006 ft | 425 kts | 25° |
| 2026-05-07 10:02 | 44.76521 | 8.80406 | 28008 ft | 424 kts | 25° |
| 2026-05-07 10:02 | 44.81596 | 8.84622 | 28004 ft | 424 kts | 25° |
| 2026-05-07 10:03 | 44.86679 | 8.88853 | 28003 ft | 425 kts | 25° |
| 2026-05-07 10:03 | 44.91775 | 8.93103 | 28004 ft | 425 kts | 25° |
| 2026-05-07 10:04 | 44.97044 | 8.96660 | 28016 ft | 414 kts | 7° |
| 2026-05-07 10:04 | 44.99821 | 8.97268 | 28014 ft | 405 kts | 356° |
| 2026-05-07 10:04 | 45.02632 | 8.97487 | 28004 ft | 404 kts | 356° |
| 2026-05-07 10:05 | 45.08252 | 8.97895 | 28004 ft | 405 kts | 357° |
| 2026-05-07 10:05 | 45.13888 | 8.98323 | 28009 ft | 405 kts | 357° |
| 2026-05-07 10:06 | 45.19523 | 8.98744 | 28009 ft | 405 kts | 357° |
| 2026-05-07 10:06 | 45.25160 | 8.99169 | 28016 ft | 405 kts | 357° |
| 2026-05-07 10:07 | 45.30789 | 8.99593 | 28025 ft | 405 kts | 357° |
| 2026-05-07 10:07 | 45.36430 | 9.00019 | 28028 ft | 405 kts | 358° |
| 2026-05-07 10:08 | 45.42018 | 9.00442 | 28027 ft | 405 kts | 358° |
| 2026-05-07 10:08 | 45.47651 | 9.00868 | 28029 ft | 405 kts | 358° |
| 2026-05-07 10:09 | 45.53270 | 9.01295 | 28030 ft | 404 kts | 358° |
| 2026-05-07 10:09 | 45.58891 | 9.01723 | 28028 ft | 404 kts | 358° |
| 2026-05-07 10:10 | 45.64440 | 9.03065 | 28051 ft | 415 kts | 22° |
| 2026-05-07 10:10 | 45.66893 | 9.05285 | 28035 ft | 420 kts | 34° |
| 2026-05-07 10:10 | 45.69342 | 9.07534 | 28026 ft | 418 kts | 29° |
| 2026-05-07 10:10 | 45.71865 | 9.09458 | 28035 ft | 413 kts | 17° |
| 2026-05-07 10:11 | 45.74615 | 9.10602 | 28035 ft | 410 kts | 6° |
| 2026-05-07 10:11 | 45.77430 | 9.10974 | 28040 ft | 404 kts | 353° |
| 2026-05-07 10:11 | 45.80210 | 9.10525 | 28034 ft | 400 kts | 346° |
| 2026-05-07 10:12 | 45.85674 | 9.09054 | 28033 ft | 401 kts | 349° |
| 2026-05-07 10:12 | 45.91230 | 9.08353 | 28015 ft | 402 kts | 351° |
| 2026-05-07 10:13 | 45.96765 | 9.07380 | 28036 ft | 401 kts | 349° |
| 2026-05-07 10:13 | 46.02340 | 9.06503 | 28016 ft | 403 kts | 351° |
| 2026-05-07 10:14 | 46.07915 | 9.05589 | 28030 ft | 404 kts | 350° |
| 2026-05-07 10:14 | 46.13505 | 9.04680 | 28028 ft | 404 kts | 351° |
| 2026-05-07 10:15 | 46.19109 | 9.03925 | 28025 ft | 405 kts | 351° |
| 2026-05-07 10:15 | 46.24716 | 9.03079 | 28033 ft | 405 kts | 352° |
| 2026-05-07 10:16 | 46.30313 | 9.02374 | 28030 ft | 406 kts | 352° |
| 2026-05-07 10:16 | 46.35941 | 9.01599 | 28033 ft | 406 kts | 352° |
| 2026-05-07 10:17 | 46.41564 | 9.00851 | 28019 ft | 407 kts | 352° |
| 2026-05-07 10:17 | 46.47208 | 9.00089 | 28020 ft | 406 kts | 352° |
| 2026-05-07 10:18 | 46.52834 | 8.99333 | 28018 ft | 406 kts | 352° |
| 2026-05-07 10:18 | 46.58457 | 8.98574 | 28027 ft | 405 kts | 352° |
| 2026-05-07 10:19 | 46.64029 | 8.97820 | 28025 ft | 404 kts | 352° |
| 2026-05-07 10:19 | 46.69654 | 8.97058 | 28029 ft | 404 kts | 352° |
| 2026-05-07 10:20 | 46.75242 | 8.96300 | 28038 ft | 403 kts | 352° |
| 2026-05-07 10:20 | 46.80814 | 8.95542 | 28046 ft | 402 kts | 352° |
| 2026-05-07 10:21 | 46.86348 | 8.94787 | 28042 ft | 402 kts | 352° |
| 2026-05-07 10:21 | 46.91917 | 8.94026 | 28042 ft | 402 kts | 352° |
| 2026-05-07 10:22 | 46.97490 | 8.93263 | 28050 ft | 403 kts | 352° |
| 2026-05-07 10:22 | 47.03061 | 8.92498 | 28050 ft | 403 kts | 352° |
| 2026-05-07 10:23 | 47.08659 | 8.91729 | 28055 ft | 404 kts | 352° |
| 2026-05-07 10:23 | 47.14247 | 8.90910 | 28060 ft | 402 kts | 347° |
| 2026-05-07 10:23 | 47.16880 | 8.89647 | 28074 ft | 398 kts | 330° |
| 2026-05-07 10:24 | 47.19284 | 8.87639 | 28053 ft | 398 kts | 327° |
| 2026-05-07 10:24 | 47.24030 | 8.83447 | 28057 ft | 399 kts | 327° |
| 2026-05-07 10:25 | 47.28771 | 8.79303 | 28054 ft | 399 kts | 327° |
| 2026-05-07 10:25 | 47.33575 | 8.75076 | 28053 ft | 399 kts | 327° |
| 2026-05-07 10:26 | 47.38303 | 8.70912 | 28056 ft | 399 kts | 327° |
| 2026-05-07 10:26 | 47.43084 | 8.66690 | 27939 ft | 400 kts | 327° |
| 2026-05-07 10:26 | 47.45478 | 8.64574 | 27808 ft | 400 kts | 327° |
| 2026-05-07 10:27 | 47.47870 | 8.62457 | 27663 ft | 401 kts | 327° |
| 2026-05-07 10:27 | 47.50265 | 8.60335 | 27535 ft | 401 kts | 327° |
| 2026-05-07 10:27 | 47.52662 | 8.58209 | 27415 ft | 401 kts | 327° |
| 2026-05-07 10:27 | 47.55056 | 8.56082 | 27291 ft | 401 kts | 327° |
| 2026-05-07 10:28 | 47.57457 | 8.53948 | 27147 ft | 402 kts | 327° |
| 2026-05-07 10:28 | 47.59855 | 8.51815 | 26807 ft | 402 kts | 327° |
| 2026-05-07 10:28 | 47.62261 | 8.49670 | 26163 ft | 404 kts | 327° |
| 2026-05-07 10:28 | 47.64679 | 8.47514 | 25509 ft | 406 kts | 327° |
| 2026-05-07 10:29 | 47.67079 | 8.45367 | 24834 ft | 409 kts | 326° |
| 2026-05-07 10:29 | 47.69286 | 8.42734 | 24126 ft | 409 kts | 311° |
| 2026-05-07 10:29 | 47.71038 | 8.39407 | 23318 ft | 411 kts | 304° |
| 2026-05-07 10:30 | 47.74356 | 8.32481 | 21819 ft | 412 kts | 304° |
| 2026-05-07 10:30 | 47.76020 | 8.29015 | 21062 ft | 413 kts | 304° |
| 2026-05-07 10:30 | 47.77699 | 8.25538 | 20309 ft | 414 kts | 304° |
| 2026-05-07 10:30 | 47.79375 | 8.22049 | 19562 ft | 414 kts | 304° |
| 2026-05-07 10:31 | 47.81042 | 8.18563 | 18812 ft | 414 kts | 304° |
| 2026-05-07 10:31 | 47.82714 | 8.15064 | 18027 ft | 414 kts | 304° |
| 2026-05-07 10:31 | 47.84380 | 8.11582 | 17284 ft | 411 kts | 304° |
| 2026-05-07 10:31 | 47.86030 | 8.08127 | 16535 ft | 408 kts | 304° |
| 2026-05-07 10:32 | 47.87665 | 8.04698 | 15805 ft | 405 kts | 304° |
| 2026-05-07 10:32 | 47.89294 | 8.01272 | 15084 ft | 403 kts | 303° |
| 2026-05-07 10:32 | 47.90907 | 7.97882 | 14354 ft | 400 kts | 304° |
| 2026-05-07 10:32 | 47.92509 | 7.94508 | 13624 ft | 397 kts | 304° |
| 2026-05-07 10:33 | 47.94072 | 7.91208 | 12899 ft | 392 kts | 303° |
| 2026-05-07 10:33 | 47.95624 | 7.87922 | 12193 ft | 387 kts | 303° |
| 2026-05-07 10:33 | 47.97173 | 7.84635 | 11484 ft | 383 kts | 303° |
| 2026-05-07 10:33 | 47.98697 | 7.81401 | 10861 ft | 378 kts | 304° |
| 2026-05-07 10:34 | 48.00186 | 7.78242 | 10572 ft | 365 kts | 303° |
| 2026-05-07 10:34 | 48.01610 | 7.75213 | 10433 ft | 346 kts | 303° |
| 2026-05-07 10:34 | 48.02966 | 7.72326 | 10107 ft | 335 kts | 303° |
| 2026-05-07 10:34 | 48.04291 | 7.69499 | 9661 ft | 329 kts | 303° |
| 2026-05-07 10:35 | 48.05578 | 7.66758 | 9489 ft | 314 kts | 303° |
| 2026-05-07 10:35 | 48.06797 | 7.64173 | 9473 ft | 295 kts | 303° |
| 2026-05-07 10:35 | 48.07943 | 7.61736 | 9447 ft | 278 kts | 303° |
| 2026-05-07 10:35 | 48.09041 | 7.59392 | 9434 ft | 273 kts | 303° |
| 2026-05-07 10:36 | 48.10120 | 7.57070 | 9408 ft | 271 kts | 301° |
| 2026-05-07 10:36 | 48.10639 | 7.55390 | 9390 ft | 269 kts | 283° |
| 2026-05-07 10:36 | 48.10572 | 7.51741 | 9237 ft | 268 kts | 250° |
| 2026-05-07 10:36 | 48.09613 | 7.49389 | 9096 ft | 266 kts | 225° |
| 2026-05-07 10:37 | 48.08072 | 7.47893 | 8930 ft | 267 kts | 201° |
| 2026-05-07 10:37 | 48.06316 | 7.47013 | 8743 ft | 266 kts | 199° |
| 2026-05-07 10:37 | 48.04571 | 7.46199 | 8567 ft | 259 kts | 198° |
| 2026-05-07 10:37 | 48.03411 | 7.45654 | 8403 ft | 257 kts | 199° |
| 2026-05-07 10:38 | 48.01731 | 7.44862 | 8166 ft | 249 kts | 196° |
| 2026-05-07 10:38 | 48.00075 | 7.44227 | 7924 ft | 243 kts | 198° |
| 2026-05-07 10:38 | 47.98481 | 7.43492 | 7673 ft | 237 kts | 195° |
| 2026-05-07 10:38 | 47.96880 | 7.43653 | 7393 ft | 239 kts | 162° |
| 2026-05-07 10:39 | 47.95365 | 7.44717 | 7188 ft | 241 kts | 154° |
| 2026-05-07 10:39 | 47.93890 | 7.45907 | 6987 ft | 240 kts | 153° |
| 2026-05-07 10:39 | 47.92433 | 7.47099 | 7005 ft | 240 kts | 153° |
| 2026-05-07 10:39 | 47.90962 | 7.48306 | 7006 ft | 242 kts | 153° |
| 2026-05-07 10:40 | 47.89484 | 7.49518 | 6995 ft | 242 kts | 153° |
| 2026-05-07 10:40 | 47.88010 | 7.50727 | 6991 ft | 242 kts | 153° |
| 2026-05-07 10:40 | 47.86535 | 7.51937 | 7005 ft | 242 kts | 153° |
| 2026-05-07 10:40 | 47.85062 | 7.53150 | 6991 ft | 242 kts | 153° |
| 2026-05-07 10:41 | 47.83589 | 7.54365 | 6995 ft | 242 kts | 153° |
| 2026-05-07 10:41 | 47.82116 | 7.55578 | 7007 ft | 242 kts | 153° |
| 2026-05-07 10:41 | 47.80642 | 7.56786 | 6993 ft | 242 kts | 153° |
| 2026-05-07 10:41 | 47.79172 | 7.57995 | 6992 ft | 242 kts | 153° |
| 2026-05-07 10:42 | 47.77699 | 7.59210 | 6999 ft | 242 kts | 153° |
| 2026-05-07 10:42 | 47.76246 | 7.60411 | 6997 ft | 243 kts | 153° |
| 2026-05-07 10:42 | 47.74772 | 7.61628 | 6999 ft | 243 kts | 153° |
| 2026-05-07 10:42 | 47.73293 | 7.62855 | 6993 ft | 243 kts | 153° |
| 2026-05-07 10:43 | 47.71821 | 7.64078 | 6997 ft | 243 kts | 153° |
| 2026-05-07 10:43 | 47.70345 | 7.65302 | 6993 ft | 243 kts | 153° |
| 2026-05-07 10:43 | 47.68869 | 7.66532 | 7003 ft | 243 kts | 153° |
| 2026-05-07 10:43 | 47.67390 | 7.67769 | 6997 ft | 243 kts | 153° |
| 2026-05-07 10:44 | 47.65918 | 7.69001 | 7005 ft | 242 kts | 153° |
| 2026-05-07 10:44 | 47.64448 | 7.70233 | 6998 ft | 243 kts | 153° |
| 2026-05-07 10:44 | 47.62988 | 7.71453 | 7005 ft | 244 kts | 153° |
| 2026-05-07 10:44 | 47.61512 | 7.72689 | 7002 ft | 243 kts | 153° |
| 2026-05-07 10:45 | 47.60040 | 7.73921 | 7000 ft | 243 kts | 153° |
| 2026-05-07 10:45 | 47.58566 | 7.75153 | 6997 ft | 244 kts | 153° |
| 2026-05-07 10:45 | 47.57085 | 7.76392 | 6997 ft | 244 kts | 153° |
| 2026-05-07 10:45 | 47.55600 | 7.77634 | 6997 ft | 244 kts | 153° |
| 2026-05-07 10:46 | 47.54117 | 7.78870 | 7002 ft | 244 kts | 153° |
| 2026-05-07 10:46 | 47.52638 | 7.80111 | 7003 ft | 245 kts | 153° |
| 2026-05-07 10:46 | 47.51155 | 7.81361 | 7003 ft | 245 kts | 153° |
| 2026-05-07 10:46 | 47.49693 | 7.82602 | 6994 ft | 245 kts | 153° |
| 2026-05-07 10:47 | 47.48216 | 7.83855 | 6997 ft | 244 kts | 153° |
| 2026-05-07 10:47 | 47.46741 | 7.85101 | 6993 ft | 244 kts | 153° |
| 2026-05-07 10:47 | 47.45269 | 7.86343 | 6999 ft | 244 kts | 153° |
| 2026-05-07 10:47 | 47.43795 | 7.87586 | 6996 ft | 244 kts | 153° |
| 2026-05-07 10:48 | 47.42319 | 7.88836 | 6992 ft | 244 kts | 153° |
| 2026-05-07 10:48 | 47.40852 | 7.90082 | 6985 ft | 242 kts | 153° |
| 2026-05-07 10:48 | 47.39381 | 7.91331 | 6988 ft | 245 kts | 153° |
| 2026-05-07 10:48 | 47.37907 | 7.92592 | 6983 ft | 245 kts | 153° |
| 2026-05-07 10:49 | 47.36432 | 7.93851 | 6995 ft | 244 kts | 153° |
| 2026-05-07 10:49 | 47.34912 | 7.94940 | 6974 ft | 240 kts | 172° |
| 2026-05-07 10:49 | 47.33352 | 7.94619 | 7011 ft | 224 kts | 210° |
| 2026-05-07 10:49 | 47.32382 | 7.92992 | 6979 ft | 208 kts | 245° |
| 2026-05-07 10:50 | 47.31938 | 7.91030 | 6991 ft | 199 kts | 253° |
| 2026-05-07 10:50 | 47.31556 | 7.89087 | 6998 ft | 196 kts | 253° |
| 2026-05-07 10:50 | 47.31176 | 7.87159 | 6989 ft | 196 kts | 253° |
| 2026-05-07 10:50 | 47.30907 | 7.85201 | 6996 ft | 195 kts | 262° |
| 2026-05-07 10:51 | 47.30896 | 7.83209 | 6977 ft | 197 kts | 277° |
| 2026-05-07 10:51 | 47.31250 | 7.81261 | 6984 ft | 199 kts | 283° |
| 2026-05-07 10:51 | 47.31631 | 7.79291 | 6997 ft | 200 kts | 283° |
| 2026-05-07 10:51 | 47.32010 | 7.77323 | 7002 ft | 199 kts | 283° |
| 2026-05-07 10:52 | 47.32391 | 7.75371 | 7003 ft | 199 kts | 283° |
| 2026-05-07 10:52 | 47.32796 | 7.73421 | 6995 ft | 200 kts | 288° |
| 2026-05-07 10:52 | 47.33406 | 7.71565 | 6990 ft | 202 kts | 295° |
| 2026-05-07 10:52 | 47.34406 | 7.70091 | 6970 ft | 209 kts | 324° |
| 2026-05-07 10:53 | 47.35701 | 7.69070 | 6999 ft | 215 kts | 329° |
| 2026-05-07 10:53 | 47.37099 | 7.68083 | 6739 ft | 229 kts | 331° |
| 2026-05-07 10:53 | 47.38586 | 7.67046 | 6384 ft | 236 kts | 330° |
| 2026-05-07 10:53 | 47.40005 | 7.66062 | 6024 ft | 221 kts | 331° |
| 2026-05-07 10:54 | 47.41358 | 7.65141 | 5663 ft | 208 kts | 332° |
| 2026-05-07 10:54 | 47.42620 | 7.64275 | 5362 ft | 192 kts | 331° |
| 2026-05-07 10:54 | 47.43791 | 7.63466 | 5070 ft | 180 kts | 331° |
| 2026-05-07 10:54 | 47.44889 | 7.62709 | 4796 ft | 168 kts | 331° |
| 2026-05-07 10:55 | 47.45928 | 7.61990 | 4526 ft | 161 kts | 331° |
| 2026-05-07 10:55 | 47.46926 | 7.61301 | 4278 ft | 155 kts | 331° |
| 2026-05-07 10:55 | 47.47877 | 7.60640 | 4049 ft | 149 kts | 330° |
| 2026-05-07 10:55 | 47.48812 | 7.59990 | 3806 ft | 148 kts | 331° |
| 2026-05-07 10:56 | 47.49747 | 7.59341 | 3585 ft | 148 kts | 331° |
| 2026-05-07 10:56 | 47.50673 | 7.58697 | 3357 ft | 146 kts | 331° |
| 2026-05-07 10:56 | 47.51587 | 7.58057 | 3130 ft | 147 kts | 331° |
| 2026-05-07 10:56 | 47.52530 | 7.57402 | 2893 ft | 150 kts | 331° |
| 2026-05-07 10:57 | 47.53463 | 7.56754 | 2640 ft | 147 kts | 331° |
| 2026-05-07 10:57 | 47.54364 | 7.56128 | 2375 ft | 142 kts | 331° |
| 2026-05-07 10:57 | 47.55256 | 7.55510 | 2100 ft | 139 kts | 332° |
| 2026-05-07 10:57 | 47.56122 | 7.54913 | 1837 ft | 138 kts | 332° |
| 2026-05-07 10:58 | 47.56971 | 7.54323 | 1574 ft | 133 kts | 332° |
| 2026-05-07 10:58 | 47.57823 | 7.53727 | 1356 ft | 138 kts | 333° |
| 2026-05-07 10:58 | 47.58665 | 7.53146 | 1148 ft | 133 kts | 332° |
| 2026-05-07 10:58 | 47.59540 | 7.52534 | 933 ft | 139 kts | 332° |
| 2026-05-07 10:59 | 47.60353 | 7.51966 | 891 ft | 122 kts | 333° |
| 2026-05-07 10:59 | 47.60864 | 7.51613 | 887 ft | 41 kts | 334° |
| 2026-05-07 10:59 | 47.61010 | 7.51528 | 884 ft | 12 kts | 10° |
| 2026-05-07 10:59 | 47.61048 | 7.51572 | 884 ft | 7 kts | 60° |
| 2026-05-07 11:00 | 47.61072 | 7.51649 | 885 ft | 9 kts | 66° |
| 2026-05-07 11:00 | 47.61074 | 7.51738 | 887 ft | 9 kts | 119° |
| 2026-05-07 11:00 | 47.61015 | 7.51801 | 887 ft | 13 kts | 153° |
| 2026-05-07 11:00 | 47.60921 | 7.51871 | 886 ft | 17 kts | 153° |
| 2026-05-07 11:01 | 47.60801 | 7.51953 | 885 ft | 21 kts | 156° |
| 2026-05-07 11:01 | 47.60656 | 7.52051 | 885 ft | 23 kts | 155° |
| 2026-05-07 11:01 | 47.60512 | 7.52152 | 887 ft | 25 kts | 154° |
| 2026-05-07 11:01 | 47.60346 | 7.52267 | 892 ft | 26 kts | 156° |
| 2026-05-07 11:02 | 47.60187 | 7.52377 | 895 ft | 25 kts | 153° |
| 2026-05-07 11:02 | 47.60031 | 7.52485 | 895 ft | 25 kts | 154° |
| 2026-05-07 11:02 | 47.59882 | 7.52589 | 898 ft | 20 kts | 151° |
| 2026-05-07 11:02 | 47.59862 | 7.52741 | 895 ft | 13 kts | 69° |
| 2026-05-07 11:03 | 47.59865 | 7.52751 | 893 ft | 0 kts | 69° |